sensor_id;sensor_type;location;lat;lon;timestamp;P1;durP1;ratioP1;P2;durP2;ratioP2
9783;SDS011;4931;44.874;-1.092;2023-06-14T00:00:12;22.90;;;8.63;;
9783;SDS011;4931;44.874;-1.092;2023-06-14T00:02:39;27.10;;;8.45;;
9783;SDS011;4931;44.874;-1.092;2023-06-14T00:05:05;25.45;;;9.15;;
9783;SDS011;4931;44.874;-1.092;2023-06-14T00:07:37;26.55;;;9.75;;
9783;SDS011;4931;44.874;-1.092;2023-06-14T00:10:07;20.27;;;8.80;;
9783;SDS011;4931;44.874;-1.092;2023-06-14T00:12:34;22.27;;;9.10;;
9783;SDS011;4931;44.874;-1.092;2023-06-14T00:15:00;21.27;;;8.88;;
9783;SDS011;4931;44.874;-1.092;2023-06-14T00:17:29;24.55;;;10.13;;
9783;SDS011;4931;44.874;-1.092;2023-06-14T00:19:56;23.92;;;9.25;;
9783;SDS011;4931;44.874;-1.092;2023-06-14T00:22:22;21.67;;;9.27;;
9783;SDS011;4931;44.874;-1.092;2023-06-14T00:24:49;23.23;;;9.38;;
9783;SDS011;4931;44.874;-1.092;2023-06-14T00:27:17;24.63;;;8.73;;
9783;SDS011;4931;44.874;-1.092;2023-06-14T00:29:43;24.92;;;8.93;;
9783;SDS011;4931;44.874;-1.092;2023-06-14T00:32:09;29.45;;;9.20;;
9783;SDS011;4931;44.874;-1.092;2023-06-14T00:34:34;24.67;;;8.65;;
9783;SDS011;4931;44.874;-1.092;2023-06-14T00:37:00;24.52;;;9.18;;
9783;SDS011;4931;44.874;-1.092;2023-06-14T00:39:26;29.05;;;8.90;;
9783;SDS011;4931;44.874;-1.092;2023-06-14T00:41:51;25.83;;;9.75;;
9783;SDS011;4931;44.874;-1.092;2023-06-14T00:44:17;20.45;;;9.30;;
9783;SDS011;4931;44.874;-1.092;2023-06-14T00:46:44;23.10;;;8.27;;
9783;SDS011;4931;44.874;-1.092;2023-06-14T00:49:10;24.27;;;8.30;;
9783;SDS011;4931;44.874;-1.092;2023-06-14T00:51:41;22.15;;;9.13;;
9783;SDS011;4931;44.874;-1.092;2023-06-14T00:54:07;23.77;;;9.25;;
9783;SDS011;4931;44.874;-1.092;2023-06-14T00:56:35;20.80;;;8.25;;
9783;SDS011;4931;44.874;-1.092;2023-06-14T00:59:01;24.38;;;8.38;;
9783;SDS011;4931;44.874;-1.092;2023-06-14T01:01:28;24.73;;;8.98;;
9783;SDS011;4931;44.874;-1.092;2023-06-14T01:03:54;19.30;;;8.55;;
9783;SDS011;4931;44.874;-1.092;2023-06-14T01:11:28;27.15;;;8.82;;
9783;SDS011;4931;44.874;-1.092;2023-06-14T01:14:01;28.17;;;9.80;;
9783;SDS011;4931;44.874;-1.092;2023-06-14T01:16:28;22.02;;;8.40;;
9783;SDS011;4931;44.874;-1.092;2023-06-14T01:18:56;23.13;;;8.77;;
9783;SDS011;4931;44.874;-1.092;2023-06-14T01:21:23;24.95;;;8.75;;
9783;SDS011;4931;44.874;-1.092;2023-06-14T01:23:50;24.15;;;9.35;;
9783;SDS011;4931;44.874;-1.092;2023-06-14T01:26:22;22.30;;;9.00;;
9783;SDS011;4931;44.874;-1.092;2023-06-14T01:28:48;18.95;;;8.40;;
9783;SDS011;4931;44.874;-1.092;2023-06-14T01:31:24;20.90;;;8.52;;
9783;SDS011;4931;44.874;-1.092;2023-06-14T01:33:52;25.15;;;8.95;;
9783;SDS011;4931;44.874;-1.092;2023-06-14T01:36:18;27.05;;;9.10;;
9783;SDS011;4931;44.874;-1.092;2023-06-14T01:38:45;23.70;;;9.05;;
9783;SDS011;4931;44.874;-1.092;2023-06-14T01:41:15;21.38;;;8.40;;
9783;SDS011;4931;44.874;-1.092;2023-06-14T01:43:42;23.70;;;8.30;;
9783;SDS011;4931;44.874;-1.092;2023-06-14T01:46:09;22.02;;;8.48;;
9783;SDS011;4931;44.874;-1.092;2023-06-14T01:48:35;23.80;;;8.45;;
9783;SDS011;4931;44.874;-1.092;2023-06-14T01:51:01;22.30;;;8.30;;
9783;SDS011;4931;44.874;-1.092;2023-06-14T01:53:26;23.35;;;8.23;;
9783;SDS011;4931;44.874;-1.092;2023-06-14T01:55:52;26.08;;;9.02;;
9783;SDS011;4931;44.874;-1.092;2023-06-14T01:58:19;24.02;;;8.80;;
9783;SDS011;4931;44.874;-1.092;2023-06-14T02:00:44;29.38;;;9.30;;
9783;SDS011;4931;44.874;-1.092;2023-06-14T02:03:10;27.40;;;8.55;;
9783;SDS011;4931;44.874;-1.092;2023-06-14T02:05:36;20.67;;;9.00;;
9783;SDS011;4931;44.874;-1.092;2023-06-14T02:08:04;27.58;;;9.25;;
9783;SDS011;4931;44.874;-1.092;2023-06-14T02:10:30;21.48;;;8.43;;
9783;SDS011;4931;44.874;-1.092;2023-06-14T02:12:55;24.10;;;8.10;;
9783;SDS011;4931;44.874;-1.092;2023-06-14T02:15:21;19.20;;;8.07;;
9783;SDS011;4931;44.874;-1.092;2023-06-14T02:17:47;20.42;;;7.78;;
9783;SDS011;4931;44.874;-1.092;2023-06-14T02:20:14;26.10;;;8.48;;
9783;SDS011;4931;44.874;-1.092;2023-06-14T02:22:40;24.08;;;8.48;;
9783;SDS011;4931;44.874;-1.092;2023-06-14T02:25:05;20.92;;;8.15;;
9783;SDS011;4931;44.874;-1.092;2023-06-14T02:27:32;17.08;;;8.10;;
9783;SDS011;4931;44.874;-1.092;2023-06-14T02:29:58;23.80;;;8.90;;
9783;SDS011;4931;44.874;-1.092;2023-06-14T02:32:25;22.63;;;8.52;;
9783;SDS011;4931;44.874;-1.092;2023-06-14T02:34:51;24.25;;;9.65;;
9783;SDS011;4931;44.874;-1.092;2023-06-14T02:37:18;27.00;;;8.65;;
9783;SDS011;4931;44.874;-1.092;2023-06-14T02:39:44;23.00;;;8.57;;
9783;SDS011;4931;44.874;-1.092;2023-06-14T02:42:09;27.70;;;9.30;;
9783;SDS011;4931;44.874;-1.092;2023-06-14T02:44:35;25.23;;;9.45;;
9783;SDS011;4931;44.874;-1.092;2023-06-14T02:47:01;31.67;;;9.57;;
9783;SDS011;4931;44.874;-1.092;2023-06-14T02:49:26;27.92;;;9.45;;
9783;SDS011;4931;44.874;-1.092;2023-06-14T02:51:52;25.65;;;10.27;;
9783;SDS011;4931;44.874;-1.092;2023-06-14T02:54:17;27.75;;;9.27;;
9783;SDS011;4931;44.874;-1.092;2023-06-14T02:56:43;31.65;;;10.25;;
9783;SDS011;4931;44.874;-1.092;2023-06-14T02:59:09;26.55;;;9.27;;
9783;SDS011;4931;44.874;-1.092;2023-06-14T03:01:34;34.72;;;10.60;;
9783;SDS011;4931;44.874;-1.092;2023-06-14T03:04:03;26.67;;;10.02;;
9783;SDS011;4931;44.874;-1.092;2023-06-14T03:06:29;26.90;;;10.35;;
9783;SDS011;4931;44.874;-1.092;2023-06-14T03:08:55;26.90;;;9.57;;
9783;SDS011;4931;44.874;-1.092;2023-06-14T03:11:29;27.98;;;9.93;;
9783;SDS011;4931;44.874;-1.092;2023-06-14T03:13:56;30.63;;;10.38;;
9783;SDS011;4931;44.874;-1.092;2023-06-14T03:16:22;25.65;;;10.10;;
9783;SDS011;4931;44.874;-1.092;2023-06-14T03:18:52;29.10;;;10.57;;
9783;SDS011;4931;44.874;-1.092;2023-06-14T03:21:20;23.08;;;10.10;;
9783;SDS011;4931;44.874;-1.092;2023-06-14T03:23:46;23.48;;;10.35;;
9783;SDS011;4931;44.874;-1.092;2023-06-14T03:26:13;27.60;;;10.55;;
9783;SDS011;4931;44.874;-1.092;2023-06-14T03:28:40;26.50;;;9.95;;
9783;SDS011;4931;44.874;-1.092;2023-06-14T03:31:06;25.02;;;9.93;;
9783;SDS011;4931;44.874;-1.092;2023-06-14T03:33:33;36.10;;;11.80;;
9783;SDS011;4931;44.874;-1.092;2023-06-14T03:35:59;29.08;;;11.38;;
9783;SDS011;4931;44.874;-1.092;2023-06-14T03:38:26;26.55;;;10.85;;
9783;SDS011;4931;44.874;-1.092;2023-06-14T03:40:52;37.42;;;12.23;;
9783;SDS011;4931;44.874;-1.092;2023-06-14T03:43:17;31.35;;;11.88;;
9783;SDS011;4931;44.874;-1.092;2023-06-14T03:45:43;28.45;;;10.70;;
9783;SDS011;4931;44.874;-1.092;2023-06-14T03:48:08;24.35;;;10.95;;
9783;SDS011;4931;44.874;-1.092;2023-06-14T03:50:34;25.48;;;11.10;;
9783;SDS011;4931;44.874;-1.092;2023-06-14T03:53:03;25.50;;;11.40;;
9783;SDS011;4931;44.874;-1.092;2023-06-14T03:55:28;31.90;;;12.23;;
9783;SDS011;4931;44.874;-1.092;2023-06-14T03:57:56;30.77;;;11.50;;
9783;SDS011;4931;44.874;-1.092;2023-06-14T04:00:22;28.13;;;10.85;;
9783;SDS011;4931;44.874;-1.092;2023-06-14T04:02:48;27.80;;;11.23;;
9783;SDS011;4931;44.874;-1.092;2023-06-14T04:05:13;37.58;;;11.88;;
9783;SDS011;4931;44.874;-1.092;2023-06-14T04:07:40;30.05;;;11.73;;
9783;SDS011;4931;44.874;-1.092;2023-06-14T04:10:10;27.17;;;11.90;;
9783;SDS011;4931;44.874;-1.092;2023-06-14T04:12:37;33.80;;;12.63;;
9783;SDS011;4931;44.874;-1.092;2023-06-14T04:15:02;31.88;;;12.50;;
9783;SDS011;4931;44.874;-1.092;2023-06-14T04:17:30;31.70;;;12.55;;
9783;SDS011;4931;44.874;-1.092;2023-06-14T04:19:58;41.10;;;12.77;;
9783;SDS011;4931;44.874;-1.092;2023-06-14T04:22:25;37.10;;;12.57;;
9783;SDS011;4931;44.874;-1.092;2023-06-14T04:24:54;32.10;;;12.85;;
9783;SDS011;4931;44.874;-1.092;2023-06-14T04:27:21;32.20;;;12.98;;
9783;SDS011;4931;44.874;-1.092;2023-06-14T04:29:54;28.45;;;12.73;;
9783;SDS011;4931;44.874;-1.092;2023-06-14T04:32:24;34.53;;;12.73;;
9783;SDS011;4931;44.874;-1.092;2023-06-14T04:34:57;32.50;;;14.63;;
9783;SDS011;4931;44.874;-1.092;2023-06-14T04:37:24;31.52;;;12.95;;
9783;SDS011;4931;44.874;-1.092;2023-06-14T04:39:53;24.85;;;12.68;;
9783;SDS011;4931;44.874;-1.092;2023-06-14T04:42:21;27.65;;;12.55;;
9783;SDS011;4931;44.874;-1.092;2023-06-14T04:44:50;28.88;;;13.38;;
9783;SDS011;4931;44.874;-1.092;2023-06-14T04:47:16;32.03;;;13.13;;
9783;SDS011;4931;44.874;-1.092;2023-06-14T04:49:42;32.38;;;13.30;;
9783;SDS011;4931;44.874;-1.092;2023-06-14T04:52:08;36.60;;;13.52;;
9783;SDS011;4931;44.874;-1.092;2023-06-14T04:54:35;28.35;;;13.27;;
9783;SDS011;4931;44.874;-1.092;2023-06-14T04:57:03;34.70;;;14.40;;
9783;SDS011;4931;44.874;-1.092;2023-06-14T04:59:31;36.75;;;14.63;;
9783;SDS011;4931;44.874;-1.092;2023-06-14T05:01:58;41.33;;;14.18;;
9783;SDS011;4931;44.874;-1.092;2023-06-14T05:04:25;43.70;;;15.07;;
9783;SDS011;4931;44.874;-1.092;2023-06-14T05:06:52;30.08;;;13.13;;
9783;SDS011;4931;44.874;-1.092;2023-06-14T05:09:19;35.50;;;14.15;;
9783;SDS011;4931;44.874;-1.092;2023-06-14T05:11:46;34.78;;;14.25;;
9783;SDS011;4931;44.874;-1.092;2023-06-14T05:14:12;34.80;;;14.23;;
9783;SDS011;4931;44.874;-1.092;2023-06-14T05:16:39;42.33;;;15.57;;
9783;SDS011;4931;44.874;-1.092;2023-06-14T05:19:05;42.30;;;15.57;;
9783;SDS011;4931;44.874;-1.092;2023-06-14T05:21:31;33.95;;;15.18;;
9783;SDS011;4931;44.874;-1.092;2023-06-14T05:23:58;44.60;;;15.77;;
9783;SDS011;4931;44.874;-1.092;2023-06-14T05:26:24;35.70;;;15.07;;
9783;SDS011;4931;44.874;-1.092;2023-06-14T05:28:54;37.22;;;14.60;;
9783;SDS011;4931;44.874;-1.092;2023-06-14T05:31:22;41.78;;;14.82;;
9783;SDS011;4931;44.874;-1.092;2023-06-14T05:33:50;45.10;;;15.07;;
9783;SDS011;4931;44.874;-1.092;2023-06-14T05:36:16;35.63;;;15.05;;
9783;SDS011;4931;44.874;-1.092;2023-06-14T05:38:42;36.47;;;15.57;;
9783;SDS011;4931;44.874;-1.092;2023-06-14T05:41:07;35.28;;;14.90;;
9783;SDS011;4931;44.874;-1.092;2023-06-14T05:43:33;33.55;;;14.50;;
9783;SDS011;4931;44.874;-1.092;2023-06-14T05:45:58;40.13;;;15.52;;
9783;SDS011;4931;44.874;-1.092;2023-06-14T05:48:24;36.90;;;15.07;;
9783;SDS011;4931;44.874;-1.092;2023-06-14T05:50:49;35.85;;;14.70;;
9783;SDS011;4931;44.874;-1.092;2023-06-14T05:53:14;33.50;;;14.35;;
9783;SDS011;4931;44.874;-1.092;2023-06-14T05:55:40;38.33;;;14.43;;
9783;SDS011;4931;44.874;-1.092;2023-06-14T05:58:05;33.25;;;14.95;;
9783;SDS011;4931;44.874;-1.092;2023-06-14T06:00:31;35.08;;;14.50;;
9783;SDS011;4931;44.874;-1.092;2023-06-14T06:02:57;36.03;;;14.93;;
9783;SDS011;4931;44.874;-1.092;2023-06-14T06:05:22;33.75;;;14.80;;
9783;SDS011;4931;44.874;-1.092;2023-06-14T06:07:49;36.38;;;13.85;;
9783;SDS011;4931;44.874;-1.092;2023-06-14T06:10:14;29.02;;;13.90;;
9783;SDS011;4931;44.874;-1.092;2023-06-14T06:12:43;24.63;;;13.02;;
9783;SDS011;4931;44.874;-1.092;2023-06-14T06:15:09;28.38;;;13.73;;
9783;SDS011;4931;44.874;-1.092;2023-06-14T06:17:38;26.55;;;12.88;;
9783;SDS011;4931;44.874;-1.092;2023-06-14T06:20:04;26.83;;;12.60;;
9783;SDS011;4931;44.874;-1.092;2023-06-14T06:22:33;25.98;;;12.88;;
9783;SDS011;4931;44.874;-1.092;2023-06-14T06:25:01;26.20;;;12.57;;
9783;SDS011;4931;44.874;-1.092;2023-06-14T06:27:27;25.75;;;12.93;;
9783;SDS011;4931;44.874;-1.092;2023-06-14T06:29:53;28.27;;;12.30;;
9783;SDS011;4931;44.874;-1.092;2023-06-14T06:32:18;27.80;;;12.82;;
9783;SDS011;4931;44.874;-1.092;2023-06-14T06:34:44;22.25;;;11.95;;
9783;SDS011;4931;44.874;-1.092;2023-06-14T06:37:10;29.15;;;12.70;;
9783;SDS011;4931;44.874;-1.092;2023-06-14T06:39:36;26.38;;;13.18;;
9783;SDS011;4931;44.874;-1.092;2023-06-14T06:42:01;33.58;;;12.40;;
9783;SDS011;4931;44.874;-1.092;2023-06-14T06:44:30;31.23;;;11.98;;
9783;SDS011;4931;44.874;-1.092;2023-06-14T06:46:56;22.33;;;11.75;;
9783;SDS011;4931;44.874;-1.092;2023-06-14T06:49:22;20.92;;;11.85;;
9783;SDS011;4931;44.874;-1.092;2023-06-14T06:54:43;22.23;;;11.25;;
9783;SDS011;4931;44.874;-1.092;2023-06-14T06:57:08;18.95;;;11.23;;
9783;SDS011;4931;44.874;-1.092;2023-06-14T06:59:34;23.70;;;11.13;;
9783;SDS011;4931;44.874;-1.092;2023-06-14T07:02:00;25.35;;;11.68;;
9783;SDS011;4931;44.874;-1.092;2023-06-14T07:04:25;23.55;;;11.48;;
9783;SDS011;4931;44.874;-1.092;2023-06-14T07:06:51;22.05;;;11.77;;
9783;SDS011;4931;44.874;-1.092;2023-06-14T07:09:16;24.00;;;11.73;;
9783;SDS011;4931;44.874;-1.092;2023-06-14T07:11:43;20.10;;;11.68;;
9783;SDS011;4931;44.874;-1.092;2023-06-14T07:14:09;23.25;;;11.70;;
9783;SDS011;4931;44.874;-1.092;2023-06-14T07:16:35;19.50;;;11.07;;
9783;SDS011;4931;44.874;-1.092;2023-06-14T07:19:03;19.27;;;11.35;;
9783;SDS011;4931;44.874;-1.092;2023-06-14T07:21:29;22.52;;;11.13;;
9783;SDS011;4931;44.874;-1.092;2023-06-14T07:23:55;18.70;;;11.80;;
9783;SDS011;4931;44.874;-1.092;2023-06-14T07:26:21;17.92;;;11.18;;
9783;SDS011;4931;44.874;-1.092;2023-06-14T07:28:48;18.20;;;11.20;;
9783;SDS011;4931;44.874;-1.092;2023-06-14T07:31:17;25.40;;;12.02;;
9783;SDS011;4931;44.874;-1.092;2023-06-14T07:33:44;14.55;;;11.00;;
9783;SDS011;4931;44.874;-1.092;2023-06-14T07:36:10;17.48;;;11.15;;
9783;SDS011;4931;44.874;-1.092;2023-06-14T07:38:35;22.40;;;11.30;;
9783;SDS011;4931;44.874;-1.092;2023-06-14T07:41:02;20.05;;;11.13;;
9783;SDS011;4931;44.874;-1.092;2023-06-14T07:43:28;17.83;;;11.15;;
9783;SDS011;4931;44.874;-1.092;2023-06-14T07:45:53;21.00;;;11.05;;
9783;SDS011;4931;44.874;-1.092;2023-06-14T07:48:20;16.50;;;10.77;;
9783;SDS011;4931;44.874;-1.092;2023-06-14T07:50:45;16.35;;;10.75;;
9783;SDS011;4931;44.874;-1.092;2023-06-14T07:53:11;18.38;;;10.68;;
9783;SDS011;4931;44.874;-1.092;2023-06-14T07:55:36;16.33;;;10.60;;
9783;SDS011;4931;44.874;-1.092;2023-06-14T07:58:08;15.63;;;11.00;;
9783;SDS011;4931;44.874;-1.092;2023-06-14T08:00:34;19.90;;;10.73;;
9783;SDS011;4931;44.874;-1.092;2023-06-14T08:02:59;19.45;;;11.27;;
9783;SDS011;4931;44.874;-1.092;2023-06-14T08:05:25;20.92;;;11.20;;
9783;SDS011;4931;44.874;-1.092;2023-06-14T08:07:52;18.15;;;10.55;;
9783;SDS011;4931;44.874;-1.092;2023-06-14T08:10:17;24.25;;;11.30;;
9783;SDS011;4931;44.874;-1.092;2023-06-14T08:12:43;19.73;;;11.32;;
9783;SDS011;4931;44.874;-1.092;2023-06-14T08:15:09;20.02;;;11.60;;
9783;SDS011;4931;44.874;-1.092;2023-06-14T08:17:35;18.05;;;10.75;;
9783;SDS011;4931;44.874;-1.092;2023-06-14T08:20:01;17.55;;;10.55;;
9783;SDS011;4931;44.874;-1.092;2023-06-14T08:22:28;18.75;;;10.90;;
9783;SDS011;4931;44.874;-1.092;2023-06-14T08:24:57;19.98;;;11.60;;
9783;SDS011;4931;44.874;-1.092;2023-06-14T08:27:23;16.35;;;11.48;;
9783;SDS011;4931;44.874;-1.092;2023-06-14T08:29:49;23.55;;;10.85;;
9783;SDS011;4931;44.874;-1.092;2023-06-14T08:32:15;19.05;;;11.18;;
9783;SDS011;4931;44.874;-1.092;2023-06-14T08:34:40;17.85;;;11.32;;
9783;SDS011;4931;44.874;-1.092;2023-06-14T08:37:06;19.00;;;11.93;;
9783;SDS011;4931;44.874;-1.092;2023-06-14T08:39:31;20.20;;;11.38;;
9783;SDS011;4931;44.874;-1.092;2023-06-14T08:41:57;17.00;;;11.40;;
9783;SDS011;4931;44.874;-1.092;2023-06-14T08:44:23;19.30;;;12.73;;
9783;SDS011;4931;44.874;-1.092;2023-06-14T08:46:48;17.27;;;11.27;;
9783;SDS011;4931;44.874;-1.092;2023-06-14T08:49:17;20.30;;;12.75;;
9783;SDS011;4931;44.874;-1.092;2023-06-14T08:51:43;18.15;;;11.27;;
9783;SDS011;4931;44.874;-1.092;2023-06-14T08:54:09;19.42;;;11.25;;
9783;SDS011;4931;44.874;-1.092;2023-06-14T08:56:37;21.27;;;11.43;;
9783;SDS011;4931;44.874;-1.092;2023-06-14T08:59:03;21.88;;;12.57;;
9783;SDS011;4931;44.874;-1.092;2023-06-14T09:01:38;19.65;;;11.85;;
9783;SDS011;4931;44.874;-1.092;2023-06-14T09:04:04;18.73;;;12.10;;
9783;SDS011;4931;44.874;-1.092;2023-06-14T09:06:33;17.85;;;11.93;;
9783;SDS011;4931;44.874;-1.092;2023-06-14T09:08:58;20.42;;;11.50;;
9783;SDS011;4931;44.874;-1.092;2023-06-14T09:11:24;19.35;;;11.73;;
9783;SDS011;4931;44.874;-1.092;2023-06-14T09:13:51;19.45;;;12.65;;
9783;SDS011;4931;44.874;-1.092;2023-06-14T09:16:17;18.88;;;11.30;;
9783;SDS011;4931;44.874;-1.092;2023-06-14T09:18:46;16.60;;;11.70;;
9783;SDS011;4931;44.874;-1.092;2023-06-14T09:21:15;16.77;;;11.57;;
9783;SDS011;4931;44.874;-1.092;2023-06-14T09:23:43;18.67;;;12.50;;
9783;SDS011;4931;44.874;-1.092;2023-06-14T09:26:10;20.42;;;12.32;;
9783;SDS011;4931;44.874;-1.092;2023-06-14T09:28:40;20.23;;;11.93;;
9783;SDS011;4931;44.874;-1.092;2023-06-14T09:31:14;17.55;;;11.38;;
9783;SDS011;4931;44.874;-1.092;2023-06-14T09:33:44;16.00;;;11.63;;
9783;SDS011;4931;44.874;-1.092;2023-06-14T09:36:16;17.10;;;12.02;;
9783;SDS011;4931;44.874;-1.092;2023-06-14T09:38:56;17.65;;;11.23;;
9783;SDS011;4931;44.874;-1.092;2023-06-14T09:41:34;20.08;;;11.95;;
9783;SDS011;4931;44.874;-1.092;2023-06-14T09:44:08;18.63;;;11.60;;
9783;SDS011;4931;44.874;-1.092;2023-06-14T09:46:35;24.42;;;11.70;;
9783;SDS011;4931;44.874;-1.092;2023-06-14T09:49:02;17.33;;;11.18;;
9783;SDS011;4931;44.874;-1.092;2023-06-14T09:51:28;13.88;;;10.73;;
9783;SDS011;4931;44.874;-1.092;2023-06-14T09:54:01;15.35;;;10.80;;
9783;SDS011;4931;44.874;-1.092;2023-06-14T09:56:30;17.83;;;10.73;;
9783;SDS011;4931;44.874;-1.092;2023-06-14T09:58:57;14.93;;;10.18;;
9783;SDS011;4931;44.874;-1.092;2023-06-14T10:01:25;18.45;;;11.55;;
9783;SDS011;4931;44.874;-1.092;2023-06-14T10:03:58;15.35;;;11.25;;
9783;SDS011;4931;44.874;-1.092;2023-06-14T10:06:29;17.05;;;11.38;;
9783;SDS011;4931;44.874;-1.092;2023-06-14T10:08:58;17.08;;;11.00;;
9783;SDS011;4931;44.874;-1.092;2023-06-14T10:11:25;18.73;;;10.85;;
9783;SDS011;4931;44.874;-1.092;2023-06-14T10:13:52;17.58;;;11.38;;
9783;SDS011;4931;44.874;-1.092;2023-06-14T10:16:24;18.17;;;10.93;;
9783;SDS011;4931;44.874;-1.092;2023-06-14T10:21:47;14.43;;;11.13;;
9783;SDS011;4931;44.874;-1.092;2023-06-14T10:24:22;19.08;;;11.30;;
9783;SDS011;4931;44.874;-1.092;2023-06-14T10:27:05;16.60;;;11.15;;
9783;SDS011;4931;44.874;-1.092;2023-06-14T10:29:35;19.50;;;11.55;;
9783;SDS011;4931;44.874;-1.092;2023-06-14T10:32:26;15.95;;;11.10;;
9783;SDS011;4931;44.874;-1.092;2023-06-14T10:34:59;17.08;;;10.93;;
9783;SDS011;4931;44.874;-1.092;2023-06-14T10:37:34;19.55;;;11.50;;
9783;SDS011;4931;44.874;-1.092;2023-06-14T10:40:00;16.13;;;12.10;;
9783;SDS011;4931;44.874;-1.092;2023-06-14T10:42:32;19.27;;;11.30;;
9783;SDS011;4931;44.874;-1.092;2023-06-14T10:44:58;15.48;;;10.85;;
9783;SDS011;4931;44.874;-1.092;2023-06-14T10:47:28;13.63;;;10.50;;
9783;SDS011;4931;44.874;-1.092;2023-06-14T10:52:23;20.95;;;11.40;;
9783;SDS011;4931;44.874;-1.092;2023-06-14T10:55:00;18.25;;;12.27;;
9783;SDS011;4931;44.874;-1.092;2023-06-14T10:57:55;18.77;;;10.80;;
9783;SDS011;4931;44.874;-1.092;2023-06-14T11:00:27;19.27;;;10.77;;
9783;SDS011;4931;44.874;-1.092;2023-06-14T11:03:08;18.15;;;11.27;;
9783;SDS011;4931;44.874;-1.092;2023-06-14T11:05:58;17.23;;;10.90;;
9783;SDS011;4931;44.874;-1.092;2023-06-14T11:08:27;20.77;;;11.45;;
9783;SDS011;4931;44.874;-1.092;2023-06-14T11:10:57;15.77;;;11.90;;
9783;SDS011;4931;44.874;-1.092;2023-06-14T11:15:51;19.98;;;11.63;;
9783;SDS011;4931;44.874;-1.092;2023-06-14T11:18:21;19.58;;;12.55;;
9783;SDS011;4931;44.874;-1.092;2023-06-14T11:20:50;17.95;;;11.43;;
9783;SDS011;4931;44.874;-1.092;2023-06-14T11:23:15;15.27;;;10.80;;
9783;SDS011;4931;44.874;-1.092;2023-06-14T11:25:41;14.98;;;11.70;;
9783;SDS011;4931;44.874;-1.092;2023-06-14T11:28:07;18.15;;;11.70;;
9783;SDS011;4931;44.874;-1.092;2023-06-14T11:30:33;17.25;;;11.30;;
9783;SDS011;4931;44.874;-1.092;2023-06-14T11:32:58;16.92;;;11.85;;
9783;SDS011;4931;44.874;-1.092;2023-06-14T11:35:24;19.65;;;11.10;;
9783;SDS011;4931;44.874;-1.092;2023-06-14T11:37:54;15.23;;;11.60;;
9783;SDS011;4931;44.874;-1.092;2023-06-14T11:40:23;20.10;;;11.45;;
9783;SDS011;4931;44.874;-1.092;2023-06-14T11:42:49;17.65;;;11.75;;
9783;SDS011;4931;44.874;-1.092;2023-06-14T11:45:22;14.98;;;11.10;;
9783;SDS011;4931;44.874;-1.092;2023-06-14T11:47:48;21.73;;;11.07;;
9783;SDS011;4931;44.874;-1.092;2023-06-14T11:50:14;18.42;;;11.27;;
9783;SDS011;4931;44.874;-1.092;2023-06-14T11:52:39;17.08;;;11.23;;
9783;SDS011;4931;44.874;-1.092;2023-06-14T11:55:05;17.65;;;10.85;;
9783;SDS011;4931;44.874;-1.092;2023-06-14T11:57:35;16.52;;;11.15;;
9783;SDS011;4931;44.874;-1.092;2023-06-14T12:00:06;18.58;;;10.93;;
9783;SDS011;4931;44.874;-1.092;2023-06-14T12:02:40;15.38;;;11.43;;
9783;SDS011;4931;44.874;-1.092;2023-06-14T12:05:06;15.90;;;11.00;;
9783;SDS011;4931;44.874;-1.092;2023-06-14T12:07:38;14.88;;;11.10;;
9783;SDS011;4931;44.874;-1.092;2023-06-14T12:10:07;13.93;;;11.07;;
9783;SDS011;4931;44.874;-1.092;2023-06-14T12:12:39;13.77;;;10.25;;
9783;SDS011;4931;44.874;-1.092;2023-06-14T12:15:08;15.38;;;10.85;;
9783;SDS011;4931;44.874;-1.092;2023-06-14T12:17:36;15.32;;;10.98;;
9783;SDS011;4931;44.874;-1.092;2023-06-14T12:20:08;16.90;;;10.60;;
9783;SDS011;4931;44.874;-1.092;2023-06-14T12:22:36;21.20;;;13.48;;
9783;SDS011;4931;44.874;-1.092;2023-06-14T12:25:03;18.52;;;11.80;;
9783;SDS011;4931;44.874;-1.092;2023-06-14T12:27:30;18.77;;;11.32;;
9783;SDS011;4931;44.874;-1.092;2023-06-14T12:29:59;18.95;;;11.98;;
9783;SDS011;4931;44.874;-1.092;2023-06-14T12:32:26;19.67;;;12.13;;
9783;SDS011;4931;44.874;-1.092;2023-06-14T12:34:52;14.73;;;11.18;;
9783;SDS011;4931;44.874;-1.092;2023-06-14T12:37:17;19.80;;;11.90;;
9783;SDS011;4931;44.874;-1.092;2023-06-14T12:39:43;21.98;;;11.82;;
9783;SDS011;4931;44.874;-1.092;2023-06-14T12:42:08;19.58;;;11.68;;
9783;SDS011;4931;44.874;-1.092;2023-06-14T12:44:34;19.90;;;11.75;;
9783;SDS011;4931;44.874;-1.092;2023-06-14T12:47:05;18.45;;;11.98;;
9783;SDS011;4931;44.874;-1.092;2023-06-14T12:49:31;14.10;;;11.23;;
9783;SDS011;4931;44.874;-1.092;2023-06-14T12:51:56;23.67;;;12.60;;
9783;SDS011;4931;44.874;-1.092;2023-06-14T12:54:22;20.52;;;12.13;;
9783;SDS011;4931;44.874;-1.092;2023-06-14T12:56:50;21.35;;;12.45;;
9783;SDS011;4931;44.874;-1.092;2023-06-14T12:59:16;19.27;;;12.93;;
9783;SDS011;4931;44.874;-1.092;2023-06-14T13:01:43;18.05;;;12.38;;
9783;SDS011;4931;44.874;-1.092;2023-06-14T13:04:09;19.63;;;12.93;;
9783;SDS011;4931;44.874;-1.092;2023-06-14T13:06:35;17.65;;;11.55;;
9783;SDS011;4931;44.874;-1.092;2023-06-14T13:09:01;22.75;;;12.10;;
9783;SDS011;4931;44.874;-1.092;2023-06-14T13:11:26;17.50;;;11.98;;
9783;SDS011;4931;44.874;-1.092;2023-06-14T13:13:52;15.30;;;10.93;;
9783;SDS011;4931;44.874;-1.092;2023-06-14T13:16:17;17.92;;;10.80;;
9783;SDS011;4931;44.874;-1.092;2023-06-14T13:18:43;15.73;;;10.30;;
9783;SDS011;4931;44.874;-1.092;2023-06-14T13:21:08;13.07;;;9.60;;
9783;SDS011;4931;44.874;-1.092;2023-06-14T13:23:34;15.05;;;9.85;;
9783;SDS011;4931;44.874;-1.092;2023-06-14T13:25:59;14.93;;;10.00;;
9783;SDS011;4931;44.874;-1.092;2023-06-14T13:28:25;22.83;;;11.02;;
9783;SDS011;4931;44.874;-1.092;2023-06-14T13:30:51;15.32;;;10.27;;
9783;SDS011;4931;44.874;-1.092;2023-06-14T13:33:16;15.95;;;10.25;;
9783;SDS011;4931;44.874;-1.092;2023-06-14T13:35:42;18.10;;;11.13;;
9783;SDS011;4931;44.874;-1.092;2023-06-14T13:38:09;16.45;;;10.43;;
9783;SDS011;4931;44.874;-1.092;2023-06-14T13:40:35;20.17;;;10.98;;
9783;SDS011;4931;44.874;-1.092;2023-06-14T13:43:01;15.93;;;10.13;;
9783;SDS011;4931;44.874;-1.092;2023-06-14T13:45:26;15.90;;;10.05;;
9783;SDS011;4931;44.874;-1.092;2023-06-14T13:47:52;18.60;;;9.98;;
9783;SDS011;4931;44.874;-1.092;2023-06-14T13:50:18;17.10;;;10.13;;
9783;SDS011;4931;44.874;-1.092;2023-06-14T13:52:45;14.70;;;9.77;;
9783;SDS011;4931;44.874;-1.092;2023-06-14T13:55:10;15.88;;;10.55;;
9783;SDS011;4931;44.874;-1.092;2023-06-14T13:57:36;19.45;;;10.65;;
9783;SDS011;4931;44.874;-1.092;2023-06-14T14:00:01;16.85;;;9.95;;
9783;SDS011;4931;44.874;-1.092;2023-06-14T14:02:28;16.58;;;10.93;;
9783;SDS011;4931;44.874;-1.092;2023-06-14T14:04:54;15.52;;;10.27;;
9783;SDS011;4931;44.874;-1.092;2023-06-14T14:07:20;18.00;;;10.05;;
9783;SDS011;4931;44.874;-1.092;2023-06-14T14:09:47;16.02;;;9.90;;
9783;SDS011;4931;44.874;-1.092;2023-06-14T14:12:12;17.23;;;9.77;;
9783;SDS011;4931;44.874;-1.092;2023-06-14T14:14:39;18.15;;;10.65;;
9783;SDS011;4931;44.874;-1.092;2023-06-14T14:17:05;20.75;;;12.60;;
9783;SDS011;4931;44.874;-1.092;2023-06-14T14:19:31;18.88;;;11.10;;
9783;SDS011;4931;44.874;-1.092;2023-06-14T14:21:57;20.23;;;11.98;;
9783;SDS011;4931;44.874;-1.092;2023-06-14T14:24:23;21.90;;;12.48;;
9783;SDS011;4931;44.874;-1.092;2023-06-14T14:26:48;21.83;;;12.68;;
9783;SDS011;4931;44.874;-1.092;2023-06-14T14:29:14;24.02;;;12.25;;
9783;SDS011;4931;44.874;-1.092;2023-06-14T14:31:41;20.63;;;11.68;;
9783;SDS011;4931;44.874;-1.092;2023-06-14T14:34:06;26.35;;;12.35;;
9783;SDS011;4931;44.874;-1.092;2023-06-14T14:36:32;18.23;;;11.57;;
9783;SDS011;4931;44.874;-1.092;2023-06-14T14:38:59;20.65;;;12.07;;
9783;SDS011;4931;44.874;-1.092;2023-06-14T14:41:25;20.95;;;11.77;;
9783;SDS011;4931;44.874;-1.092;2023-06-14T14:43:50;16.52;;;11.68;;
9783;SDS011;4931;44.874;-1.092;2023-06-14T14:46:16;16.58;;;11.10;;
9783;SDS011;4931;44.874;-1.092;2023-06-14T14:48:41;20.25;;;11.32;;
9783;SDS011;4931;44.874;-1.092;2023-06-14T14:51:07;19.63;;;11.27;;
9783;SDS011;4931;44.874;-1.092;2023-06-14T14:53:32;21.98;;;11.48;;